createdAt,value
2019-02-06T00:01:33.068Z,35.90
2019-02-06T00:04:01.874Z,36.03
2019-02-06T00:06:30.886Z,43.77
2019-02-06T00:08:59.675Z,29.93
2019-02-06T00:11:28.494Z,39.93
2019-02-06T00:13:57.330Z,35.90
2019-02-06T00:16:26.100Z,35.27
2019-02-06T00:18:54.903Z,37.17
2019-02-06T00:21:23.692Z,38.77
2019-02-06T00:23:52.849Z,35.73
2019-02-06T00:26:21.705Z,35.20
2019-02-06T00:28:50.474Z,37.40
2019-02-06T00:31:19.252Z,35.80
2019-02-06T00:33:48.051Z,38.20
2019-02-06T00:36:16.848Z,36.37
2019-02-06T00:38:45.662Z,37.50
2019-02-06T00:41:14.494Z,37.53
2019-02-06T00:43:43.282Z,30.97
2019-02-06T00:46:12.124Z,34.27
2019-02-06T00:48:40.830Z,36.67
2019-02-06T00:51:09.740Z,30.40
2019-02-06T00:53:38.524Z,38.47
2019-02-06T00:56:07.605Z,35.80
2019-02-06T00:58:37.465Z,35.83
2019-02-06T01:01:06.332Z,37.63
2019-02-06T01:03:35.070Z,41.93
2019-02-06T01:06:04.079Z,32.57
2019-02-06T01:08:32.878Z,41.83
2019-02-06T01:11:02.058Z,35.47
2019-02-06T01:13:30.813Z,35.00
2019-02-06T01:15:59.616Z,38.30
2019-02-06T01:18:28.428Z,32.10
2019-02-06T01:20:57.149Z,32.73
2019-02-06T01:23:25.967Z,39.53
2019-02-06T01:25:54.685Z,28.53
2019-02-06T01:28:23.771Z,37.07
2019-02-06T01:31:11.685Z,31.57
2019-02-06T01:33:40.496Z,30.73
2019-02-06T01:36:09.308Z,33.40
2019-02-06T01:38:38.098Z,35.77
2019-02-06T01:41:06.811Z,34.97
2019-02-06T01:43:35.633Z,34.67
2019-02-06T01:46:04.455Z,34.90
2019-02-06T01:48:33.244Z,29.13
2019-02-06T01:51:02.042Z,33.73
2019-02-06T01:53:30.951Z,33.77
2019-02-06T01:56:00.027Z,34.23
2019-02-06T01:58:28.837Z,35.10
2019-02-06T02:00:57.705Z,37.33
2019-02-06T02:03:26.510Z,33.77
2019-02-06T02:06:02.268Z,35.67
2019-02-06T02:08:25.743Z,33.30
2019-02-06T02:10:54.639Z,33.07
2019-02-06T02:13:23.491Z,28.20
2019-02-06T02:15:52.210Z,35.20
2019-02-06T02:18:21.033Z,32.13
2019-02-06T02:20:49.845Z,28.30
2019-02-06T02:23:18.656Z,34.87
2019-02-06T02:25:47.457Z,34.00
2019-02-06T02:28:16.683Z,31.67
2019-02-06T02:30:48.654Z,32.80
2019-02-06T02:33:17.493Z,31.43
2019-02-06T02:35:46.268Z,29.63
2019-02-06T02:38:15.065Z,29.83
2019-02-06T02:40:43.861Z,31.77
2019-02-06T02:43:12.871Z,38.23
2019-02-06T02:45:41.657Z,37.20
2019-02-06T02:48:10.458Z,39.00
2019-02-06T02:50:41.268Z,41.13
2019-02-06T02:53:09.997Z,36.50
2019-02-06T02:55:38.794Z,40.50
2019-02-06T02:58:08.289Z,42.23
2019-02-06T03:01:05.316Z,39.30
2019-02-06T03:03:44.387Z,42.43
2019-02-06T03:06:13.403Z,41.87
2019-02-06T03:08:42.102Z,45.77
2019-02-06T03:11:10.874Z,49.77
2019-02-06T03:13:39.658Z,45.73
2019-02-06T03:16:08.446Z,45.33
2019-02-06T03:18:37.261Z,47.80
2019-02-06T03:21:06.474Z,49.77
2019-02-06T03:23:35.314Z,49.27
2019-02-06T03:26:04.221Z,57.13
2019-02-06T03:28:33.015Z,53.43
2019-02-06T03:31:01.818Z,65.50
2019-02-06T03:33:30.669Z,55.77
2019-02-06T03:35:59.454Z,54.60
2019-02-06T03:38:28.239Z,52.57
2019-02-06T03:40:57.050Z,53.83
2019-02-06T03:43:25.838Z,45.43
2019-02-06T03:45:54.647Z,46.73
2019-02-06T03:48:23.444Z,50.37
2019-02-06T03:50:52.263Z,39.50
2019-02-06T03:53:21.282Z,45.10
2019-02-06T03:55:50.078Z,42.70
2019-02-06T03:58:18.900Z,44.93
2019-02-06T04:00:47.699Z,45.70
2019-02-06T04:03:16.530Z,43.13
2019-02-06T04:05:45.470Z,42.67
2019-02-06T04:08:14.232Z,45.40
2019-02-06T04:10:43.034Z,43.73
2019-02-06T04:13:11.845Z,39.33
2019-02-06T04:15:40.644Z,44.77
2019-02-06T04:18:09.446Z,46.93
2019-02-06T04:20:38.247Z,45.30
2019-02-06T04:23:07.063Z,47.10
2019-02-06T04:25:36.173Z,47.20
2019-02-06T04:28:05.115Z,45.97
2019-02-06T04:30:33.887Z,42.47
2019-02-06T04:33:02.668Z,42.03
2019-02-06T04:35:31.469Z,48.03
2019-02-06T04:38:00.271Z,41.83
2019-02-06T04:40:29.357Z,53.30
2019-02-06T04:42:58.076Z,49.60
2019-02-06T04:45:26.814Z,48.77
2019-02-06T04:47:55.592Z,50.97
2019-02-06T04:50:24.466Z,50.50
2019-02-06T04:52:53.259Z,52.77
2019-02-06T04:55:22.083Z,47.17
2019-02-06T04:57:51.050Z,52.17
2019-02-06T05:00:20.995Z,49.90
2019-02-06T05:02:50.015Z,47.57
2019-02-06T05:05:18.864Z,51.53
2019-02-06T05:07:47.702Z,49.20
2019-02-06T05:10:16.601Z,48.57
2019-02-06T05:12:45.686Z,48.27
2019-02-06T05:15:14.680Z,45.00
2019-02-06T05:17:43.532Z,48.60
2019-02-06T05:20:43.382Z,64.40
2019-02-06T05:23:12.175Z,55.63
2019-02-06T05:25:40.972Z,44.60
2019-02-06T05:28:09.795Z,43.47
2019-02-06T05:30:38.496Z,48.90
2019-02-06T05:33:07.318Z,49.07
2019-02-06T05:35:36.103Z,45.13
2019-02-06T05:38:05.305Z,47.70
2019-02-06T05:40:34.104Z,40.43
2019-02-06T05:43:02.911Z,54.27
2019-02-06T05:45:31.622Z,42.40
2019-02-06T05:48:00.365Z,57.50
2019-02-06T05:50:29.152Z,45.40
2019-02-06T05:52:57.945Z,46.07
2019-02-06T05:55:27.160Z,35.60
2019-02-06T05:57:55.999Z,45.27
2019-02-06T06:00:29.249Z,48.17
2019-02-06T06:02:58.049Z,46.67
2019-02-06T06:05:29.562Z,44.90
2019-02-06T06:07:58.378Z,47.67
2019-02-06T06:10:27.451Z,39.77
2019-02-06T06:12:56.274Z,39.17
2019-02-06T06:15:25.019Z,40.83
2019-02-06T06:17:53.810Z,43.97
2019-02-06T06:20:25.651Z,41.33
2019-02-06T06:22:54.427Z,39.00
2019-02-06T06:25:23.209Z,45.23
2019-02-06T06:27:52.034Z,41.63
2019-02-06T06:30:20.873Z,38.97
2019-02-06T06:32:50.155Z,40.37
2019-02-06T06:35:18.953Z,46.80
2019-02-06T06:37:57.679Z,48.20
2019-02-06T06:40:19.297Z,43.10
2019-02-06T06:42:48.436Z,32.23
2019-02-06T06:45:19.000Z,38.43
2019-02-06T06:47:47.889Z,44.57
2019-02-06T06:50:18.179Z,36.10
2019-02-06T06:52:46.965Z,47.30
2019-02-06T06:55:15.794Z,44.23
2019-02-06T06:57:45.017Z,39.17
2019-02-06T07:00:15.338Z,38.27
2019-02-06T07:02:44.137Z,36.47
2019-02-06T07:05:13.117Z,32.07
2019-02-06T07:07:41.854Z,39.47
2019-02-06T07:10:12.276Z,19.80
2019-02-06T07:12:41.364Z,36.00
2019-02-06T07:15:12.207Z,43.07
2019-02-06T07:17:40.977Z,41.13
2019-02-06T07:20:10.840Z,37.17
2019-02-06T07:22:39.670Z,35.37
2019-02-06T07:25:08.626Z,40.53
2019-02-06T07:27:37.553Z,32.17
2019-02-06T07:30:08.877Z,34.20
2019-02-06T07:32:37.742Z,38.17
2019-02-06T07:35:06.646Z,30.90
2019-02-06T07:37:35.446Z,29.37
2019-02-06T07:40:07.356Z,33.83
2019-02-06T07:42:36.543Z,37.37
2019-02-06T07:45:06.202Z,30.43
2019-02-06T07:47:34.938Z,27.50
2019-02-06T07:50:04.483Z,34.00
2019-02-06T07:52:33.288Z,28.17
2019-02-06T07:55:02.039Z,34.97
2019-02-06T07:57:31.191Z,36.07
2019-02-06T07:59:59.976Z,36.70
2019-02-06T08:02:28.799Z,31.40
2019-02-06T08:04:57.609Z,29.63
2019-02-06T08:07:26.428Z,27.90
2019-02-06T08:09:55.258Z,34.93
2019-02-06T08:12:24.117Z,30.40
2019-02-06T08:14:53.511Z,38.27
2019-02-06T08:17:22.329Z,32.20
2019-02-06T08:19:51.307Z,26.07
2019-02-06T08:22:20.053Z,32.67
2019-02-06T08:24:48.863Z,24.53
2019-02-06T08:27:18.197Z,27.00
2019-02-06T08:29:47.437Z,33.10
2019-02-06T08:32:16.240Z,31.00
2019-02-06T08:34:45.061Z,25.73
2019-02-06T08:37:13.843Z,27.67
2019-02-06T08:39:42.654Z,23.30
2019-02-06T08:42:11.486Z,27.27
2019-02-06T08:44:40.283Z,25.17
2019-02-06T08:47:09.004Z,27.50
2019-02-06T08:49:42.870Z,22.40
2019-02-06T08:52:11.662Z,24.77
2019-02-06T08:54:40.633Z,21.87
2019-02-06T08:57:09.440Z,23.00
2019-02-06T08:59:38.333Z,23.07
2019-02-06T09:02:07.160Z,20.10
2019-02-06T09:04:36.079Z,22.40
2019-02-06T09:07:05.015Z,19.90
2019-02-06T09:09:33.838Z,24.00
2019-02-06T09:12:02.652Z,24.20
2019-02-06T09:14:31.489Z,22.60
2019-02-06T09:17:00.597Z,27.77
2019-02-06T09:19:29.395Z,25.50
2019-02-06T09:21:58.231Z,28.90
2019-02-06T09:24:27.015Z,26.07
2019-02-06T09:26:55.810Z,22.73
2019-02-06T09:29:24.732Z,25.10
2019-02-06T09:31:53.827Z,26.60
2019-02-06T09:34:22.608Z,24.87
2019-02-06T09:36:51.342Z,26.97
2019-02-06T09:39:20.071Z,29.37
2019-02-06T09:41:48.888Z,20.83
2019-02-06T09:44:17.717Z,23.30
2019-02-06T09:46:46.506Z,20.97
2019-02-06T09:49:15.583Z,19.83
2019-02-06T09:51:44.315Z,23.60
2019-02-06T09:54:13.059Z,19.10
2019-02-06T09:56:41.865Z,21.57
2019-02-06T09:59:10.650Z,24.83
2019-02-06T10:01:39.464Z,20.43
2019-02-06T10:04:08.269Z,18.83
2019-02-06T10:06:37.060Z,17.27
2019-02-06T10:09:07.500Z,22.03
2019-02-06T10:11:36.337Z,18.80
2019-02-06T10:14:05.140Z,18.73
2019-02-06T10:16:33.938Z,18.43
2019-02-06T10:19:02.762Z,19.80
2019-02-06T10:21:31.668Z,18.10
2019-02-06T10:24:00.463Z,20.10
2019-02-06T10:26:29.291Z,20.20
2019-02-06T10:28:58.091Z,22.43
2019-02-06T10:31:26.812Z,19.17
2019-02-06T10:33:55.636Z,21.47
2019-02-06T10:36:24.874Z,24.33
2019-02-06T10:38:53.753Z,20.17
2019-02-06T10:41:22.579Z,18.43
2019-02-06T10:43:51.419Z,18.07
2019-02-06T10:46:20.246Z,17.33
2019-02-06T10:48:49.013Z,14.03
2019-02-06T10:51:17.793Z,14.40
2019-02-06T10:53:46.628Z,22.53
2019-02-06T10:56:15.420Z,18.97
2019-02-06T10:58:44.230Z,16.37
2019-02-06T11:01:13.061Z,14.67
2019-02-06T11:03:42.080Z,14.87
2019-02-06T11:06:10.891Z,15.63
2019-02-06T11:08:40.006Z,16.60
2019-02-06T11:11:08.840Z,12.40
2019-02-06T11:13:37.685Z,17.83
2019-02-06T11:16:06.483Z,15.47
2019-02-06T11:18:35.339Z,18.00
2019-02-06T11:21:04.473Z,14.87
2019-02-06T11:23:33.252Z,13.40
2019-02-06T11:26:02.158Z,18.93
2019-02-06T11:28:30.959Z,17.23
2019-02-06T11:30:59.827Z,18.87
2019-02-06T11:33:28.718Z,14.27
2019-02-06T11:35:57.505Z,14.10
2019-02-06T11:38:28.086Z,14.67
2019-02-06T11:40:56.768Z,14.07
2019-02-06T11:43:25.583Z,15.43
2019-02-06T11:45:54.474Z,15.83
2019-02-06T11:48:23.294Z,14.00
2019-02-06T11:50:52.016Z,16.33
2019-02-06T11:53:22.012Z,12.87
2019-02-06T11:55:51.136Z,15.63
2019-02-06T11:58:19.916Z,11.40
2019-02-06T12:00:57.303Z,15.03
2019-02-06T12:03:26.114Z,10.80
2019-02-06T12:05:54.969Z,15.50
2019-02-06T12:08:23.782Z,16.43
2019-02-06T12:10:52.653Z,13.20
2019-02-06T12:13:21.455Z,12.53
2019-02-06T12:15:50.304Z,14.20
2019-02-06T12:18:19.231Z,13.13
2019-02-06T12:20:48.192Z,13.93
2019-02-06T12:23:17.007Z,14.07
2019-02-06T12:25:46.143Z,13.63
2019-02-06T12:28:17.874Z,14.57
2019-02-06T12:30:46.663Z,16.90
2019-02-06T12:33:15.471Z,15.83
2019-02-06T12:35:44.273Z,18.17
2019-02-06T12:38:13.082Z,13.97
2019-02-06T12:40:42.126Z,13.70
2019-02-06T12:43:10.886Z,15.23
2019-02-06T12:45:39.767Z,16.90
2019-02-06T12:48:08.641Z,16.07
2019-02-06T12:50:37.479Z,13.17
2019-02-06T12:53:06.376Z,12.67
2019-02-06T12:55:35.945Z,13.87
2019-02-06T12:58:05.288Z,17.30
2019-02-06T13:00:34.635Z,13.87
2019-02-06T13:03:03.571Z,18.17
2019-02-06T13:05:32.357Z,18.17
2019-02-06T13:08:01.187Z,17.87
2019-02-06T13:10:34.464Z,10.00
2019-02-06T13:13:03.663Z,14.63
2019-02-06T13:15:32.804Z,12.27
2019-02-06T13:18:01.658Z,12.70
2019-02-06T13:20:30.687Z,15.87
2019-02-06T13:23:02.019Z,13.03
2019-02-06T13:25:30.900Z,12.63
2019-02-06T13:28:01.913Z,12.10
2019-02-06T13:30:31.872Z,10.80
2019-02-06T13:33:00.694Z,16.20
2019-02-06T13:35:29.486Z,11.20
2019-02-06T13:37:58.955Z,10.23
2019-02-06T13:40:27.962Z,10.80
2019-02-06T13:42:57.032Z,13.40
2019-02-06T13:45:27.480Z,12.00
2019-02-06T13:47:56.369Z,14.47
2019-02-06T13:50:25.716Z,10.80
2019-02-06T13:52:54.519Z,13.40
2019-02-06T13:55:23.416Z,13.07
2019-02-06T13:57:52.218Z,14.47
2019-02-06T14:00:26.516Z,14.43
2019-02-06T14:03:00.704Z,13.83
2019-02-06T14:05:31.190Z,13.23
2019-02-06T14:08:06.130Z,11.93
2019-02-06T14:10:34.920Z,11.00
2019-02-06T14:13:03.917Z,16.87
2019-02-06T14:15:34.257Z,11.13
2019-02-06T14:18:04.227Z,13.70
2019-02-06T14:20:33.014Z,11.43
2019-02-06T14:23:03.973Z,13.53
2019-02-06T14:25:34.755Z,12.27
2019-02-06T14:28:19.071Z,17.00
2019-02-06T14:31:05.586Z,10.53
2019-02-06T14:33:56.637Z,12.20
2019-02-06T14:36:44.526Z,10.00
2019-02-06T14:39:16.568Z,13.53
2019-02-06T14:42:04.580Z,13.67
2019-02-06T14:44:57.317Z,14.70
2019-02-06T14:47:48.660Z,10.13
2019-02-06T14:50:35.106Z,11.33
2019-02-06T14:53:10.699Z,12.57
2019-02-06T14:55:49.479Z,9.47
2019-02-06T14:58:37.294Z,16.90
2019-02-06T15:01:09.483Z,12.37
2019-02-06T15:03:43.155Z,11.80
2019-02-06T15:06:49.511Z,10.13
2019-02-06T15:09:36.041Z,14.33
2019-02-06T15:12:22.776Z,15.20
2019-02-06T15:15:05.739Z,11.33
2019-02-06T15:17:51.665Z,13.23
2019-02-06T15:20:40.332Z,12.43
2019-02-06T15:23:32.954Z,12.33
2019-02-06T15:26:11.362Z,14.73
2019-02-06T15:29:02.405Z,13.13
2019-02-06T15:31:41.797Z,11.77
2019-02-06T15:34:29.495Z,14.47
2019-02-06T15:37:05.680Z,12.53
2019-02-06T15:39:53.063Z,11.17
2019-02-06T15:42:44.029Z,13.50
2019-02-06T15:45:28.731Z,14.93
2019-02-06T15:48:29.066Z,12.27
2019-02-06T15:51:17.598Z,12.47
2019-02-06T15:54:05.194Z,11.87
2019-02-06T15:56:48.110Z,12.37
2019-02-06T15:59:41.877Z,11.43
2019-02-06T16:02:29.844Z,14.77
2019-02-06T16:05:36.378Z,13.77
2019-02-06T16:08:17.148Z,10.23
2019-02-06T16:11:07.979Z,14.37
2019-02-06T16:14:04.727Z,13.30
2019-02-06T16:16:52.658Z,14.50
2019-02-06T16:19:31.605Z,13.60
2019-02-06T16:22:09.899Z,15.03
2019-02-06T16:24:42.392Z,12.57
2019-02-06T16:27:33.417Z,13.80
2019-02-06T16:30:27.329Z,17.87
2019-02-06T16:33:10.390Z,13.70
2019-02-06T16:35:58.185Z,11.93
2019-02-06T16:38:46.076Z,13.73
2019-02-06T16:41:34.034Z,12.40
2019-02-06T16:44:13.319Z,13.63
2019-02-06T16:47:00.192Z,12.77
2019-02-06T16:49:44.277Z,13.07
2019-02-06T16:52:23.601Z,12.90
2019-02-06T16:55:14.831Z,11.67
2019-02-06T16:58:02.937Z,12.97
2019-02-06T17:00:50.229Z,13.93
2019-02-06T17:03:49.627Z,12.27
2019-02-06T17:06:31.220Z,13.70
2019-02-06T17:09:18.810Z,13.03
2019-02-06T17:12:19.114Z,15.57
2019-02-06T17:15:07.519Z,21.27
2019-02-06T17:17:51.621Z,14.97
2019-02-06T17:20:52.046Z,12.47
2019-02-06T17:23:42.373Z,13.17
2019-02-06T17:26:31.283Z,12.20
2019-02-06T17:29:25.285Z,10.40
2019-02-06T17:32:02.351Z,14.80
2019-02-06T17:34:41.397Z,12.07
2019-02-06T17:37:29.494Z,14.13
2019-02-06T17:40:10.635Z,11.33
2019-02-06T17:43:10.803Z,15.97
2019-02-06T17:46:07.725Z,10.70
2019-02-06T17:48:50.497Z,12.07
2019-02-06T17:51:38.653Z,19.57
2019-02-06T17:54:44.751Z,15.17
2019-02-06T17:57:13.653Z,15.10
2019-02-06T17:59:42.416Z,12.43
2019-02-06T18:02:11.420Z,13.03
2019-02-06T18:04:41.905Z,15.80
2019-02-06T18:07:10.753Z,18.20
2019-02-06T18:09:39.692Z,18.33
2019-02-06T18:12:08.605Z,15.83
2019-02-06T18:14:37.521Z,14.83
2019-02-06T18:17:06.269Z,13.50
2019-02-06T18:19:39.539Z,20.77
2019-02-06T18:22:08.848Z,13.83
2019-02-06T18:24:37.915Z,16.83
2019-02-06T18:27:06.959Z,16.77
2019-02-06T18:29:35.922Z,14.53
2019-02-06T18:32:04.788Z,15.30
2019-02-06T18:34:33.729Z,16.80
2019-02-06T18:37:02.782Z,17.13
2019-02-06T18:39:31.646Z,17.30
2019-02-06T18:42:00.793Z,17.23
2019-02-06T18:44:29.674Z,15.50
2019-02-06T18:46:59.923Z,18.77
2019-02-06T18:49:28.773Z,15.03
2019-02-06T18:51:57.639Z,16.87
2019-02-06T18:54:26.866Z,16.90
2019-02-06T18:56:56.072Z,20.27
2019-02-06T18:59:26.971Z,16.17
2019-02-06T19:01:56.342Z,18.30
2019-02-06T19:04:25.268Z,14.90
2019-02-06T19:06:54.761Z,18.60
2019-02-06T19:09:23.969Z,18.80
2019-02-06T19:11:55.256Z,17.07
2019-02-06T19:14:24.550Z,18.50
2019-02-06T19:16:58.448Z,17.80
2019-02-06T19:19:27.990Z,14.67
2019-02-06T19:21:56.924Z,16.57
2019-02-06T19:24:25.879Z,19.27
2019-02-06T19:26:54.902Z,16.13
2019-02-06T19:29:24.022Z,15.03
2019-02-06T19:31:52.942Z,17.97
2019-02-06T19:34:21.961Z,18.33
2019-02-06T19:36:50.885Z,14.60
2019-02-06T19:39:19.773Z,14.70
2019-02-06T19:41:48.693Z,14.40
2019-02-06T19:44:17.616Z,14.27
2019-02-06T19:46:46.721Z,13.40
2019-02-06T19:49:16.663Z,16.23
2019-02-06T19:51:45.934Z,13.70
2019-02-06T19:54:14.938Z,14.47
2019-02-06T19:56:43.969Z,12.77
2019-02-06T19:59:13.889Z,13.40
2019-02-06T20:01:43.105Z,15.30
2019-02-06T20:04:12.139Z,13.77
2019-02-06T20:06:41.003Z,10.67
2019-02-06T20:09:10.876Z,14.47
2019-02-06T20:11:40.813Z,13.47
2019-02-06T20:14:12.912Z,12.50
2019-02-06T20:16:41.877Z,12.30
2019-02-06T20:19:10.773Z,12.30
2019-02-06T20:21:39.993Z,11.83
2019-02-06T20:24:09.018Z,12.87
2019-02-06T20:26:38.108Z,13.53
2019-02-06T20:29:07.092Z,11.87
2019-02-06T20:31:36.064Z,14.13
2019-02-06T20:34:05.271Z,14.70
2019-02-06T20:36:34.260Z,14.37
2019-02-06T20:39:04.423Z,16.17
2019-02-06T20:41:33.602Z,14.37
2019-02-06T20:44:02.534Z,16.20
2019-02-06T20:46:34.119Z,15.03
2019-02-06T20:49:03.155Z,15.63
2019-02-06T20:51:35.061Z,16.23
2019-02-06T20:54:04.180Z,25.63
2019-02-06T20:56:33.414Z,17.93
2019-02-06T20:59:02.413Z,17.77
2019-02-06T21:01:31.429Z,18.37
2019-02-06T21:04:00.373Z,15.57
2019-02-06T21:06:29.306Z,17.60
2019-02-06T21:08:58.294Z,16.90
2019-02-06T21:11:27.670Z,17.17
2019-02-06T21:13:56.657Z,19.93
2019-02-06T21:16:25.484Z,18.60
2019-02-06T21:18:54.363Z,18.20
2019-02-06T21:21:23.892Z,22.57
2019-02-06T21:23:52.711Z,20.90
2019-02-06T21:26:21.694Z,17.40
2019-02-06T21:28:50.650Z,20.47
2019-02-06T21:31:19.501Z,18.67
2019-02-06T21:33:48.436Z,17.70
2019-02-06T21:36:17.309Z,20.00
2019-02-06T21:38:46.143Z,20.47
2019-02-06T21:41:15.046Z,18.10
2019-02-06T21:43:44.512Z,17.93
2019-02-06T21:46:13.278Z,17.90
2019-02-06T21:48:42.194Z,18.47
2019-02-06T21:51:10.998Z,19.47
2019-02-06T21:53:39.850Z,17.83
2019-02-06T21:56:08.672Z,19.87
2019-02-06T21:58:37.971Z,21.67
2019-02-06T22:01:06.830Z,27.83
2019-02-06T22:03:35.595Z,23.33
2019-02-06T22:06:04.548Z,19.33
2019-02-06T22:08:33.404Z,25.10
2019-02-06T22:11:02.245Z,29.53
2019-02-06T22:13:31.055Z,28.67
2019-02-06T22:15:59.862Z,25.33
2019-02-06T22:18:28.707Z,22.00
2019-02-06T22:20:59.906Z,22.63
2019-02-06T22:23:28.714Z,24.57
2019-02-06T22:25:57.589Z,21.40
2019-02-06T22:28:26.462Z,23.13
2019-02-06T22:30:55.327Z,19.47
2019-02-06T22:33:24.173Z,23.10
2019-02-06T22:35:52.956Z,24.27
2019-02-06T22:38:21.796Z,25.23
2019-02-06T22:40:50.582Z,23.53
2019-02-06T22:43:19.406Z,22.63
2019-02-06T22:45:48.300Z,26.67
2019-02-06T22:48:17.067Z,24.20
2019-02-06T22:50:48.362Z,23.67
2019-02-06T22:53:17.160Z,29.07
2019-02-06T22:55:45.982Z,24.17
2019-02-06T22:58:14.798Z,27.27
2019-02-06T23:00:49.060Z,24.70
2019-02-06T23:03:25.695Z,27.43
2019-02-06T23:05:57.545Z,26.87
2019-02-06T23:08:26.350Z,27.07
2019-02-06T23:10:55.189Z,27.97
2019-02-06T23:13:24.050Z,29.80
2019-02-06T23:15:52.962Z,28.00
2019-02-06T23:18:21.855Z,28.43
2019-02-06T23:20:50.647Z,28.63
2019-02-06T23:23:19.551Z,25.27
2019-02-06T23:25:48.366Z,29.47
2019-02-06T23:28:17.308Z,27.67
2019-02-06T23:30:46.149Z,28.37
2019-02-06T23:33:14.972Z,26.13
2019-02-06T23:35:43.799Z,29.70
2019-02-06T23:38:12.886Z,26.20
2019-02-06T23:40:41.910Z,28.40
2019-02-06T23:43:10.702Z,29.37
2019-02-06T23:45:39.615Z,29.33
2019-02-06T23:48:08.360Z,27.40
2019-02-06T23:50:37.169Z,31.10
2019-02-06T23:53:06.208Z,29.47
2019-02-06T23:55:35.016Z,27.30
2019-02-06T23:58:04.214Z,28.87
